createdAt,value
2022-12-29T00:00:26.575Z,16.25
2022-12-29T00:01:02.401Z,18.02
2022-12-29T00:01:35.481Z,13.15
2022-12-29T00:02:07.370Z,20.75
2022-12-29T00:02:39.372Z,14.32
2022-12-29T00:03:11.429Z,14.82
2022-12-29T00:03:46.265Z,18.48
2022-12-29T00:04:18.171Z,18.67
2022-12-29T00:04:53.312Z,19.27
2022-12-29T00:05:25.257Z,16.50
2022-12-29T00:05:58.521Z,16.35
2022-12-29T00:06:31.620Z,18.60
2022-12-29T00:07:05.441Z,16.08
2022-12-29T00:07:37.503Z,15.15
2022-12-29T00:08:09.333Z,15.57
2022-12-29T00:08:41.690Z,16.52
2022-12-29T00:09:14.067Z,17.73
2022-12-29T00:09:45.992Z,17.30
2022-12-29T00:10:17.932Z,17.77
2022-12-29T00:10:49.792Z,15.70
2022-12-29T00:11:23.873Z,16.87
2022-12-29T00:11:56.236Z,18.17
2022-12-29T00:12:48.053Z,19.17
2022-12-29T00:13:38.541Z,20.92
2022-12-29T00:14:30.580Z,15.77
2022-12-29T00:15:21.055Z,20.73
2022-12-29T00:15:52.917Z,15.85
2022-12-29T00:16:25.343Z,18.05
2022-12-29T00:16:58.030Z,18.50
2022-12-29T00:17:30.537Z,21.10
2022-12-29T00:18:02.463Z,15.63
2022-12-29T00:18:34.284Z,17.90
2022-12-29T00:19:06.122Z,19.17
2022-12-29T00:19:57.789Z,20.27
2022-12-29T00:20:48.356Z,15.63
2022-12-29T00:21:42.144Z,15.50
2022-12-29T00:22:34.327Z,14.63
2022-12-29T00:23:24.795Z,13.75
2022-12-29T00:24:28.763Z,14.25
2022-12-29T00:25:06.401Z,18.23
2022-12-29T00:25:56.808Z,17.30
2022-12-29T00:26:47.229Z,17.67
2022-12-29T00:27:38.220Z,18.42
2022-12-29T00:28:29.101Z,18.52
2022-12-29T00:29:21.228Z,17.77
2022-12-29T00:30:12.535Z,17.50
2022-12-29T00:31:04.544Z,18.12
2022-12-29T00:31:55.057Z,19.87
2022-12-29T00:32:46.006Z,22.83
2022-12-29T00:33:39.501Z,15.73
2022-12-29T00:34:30.873Z,23.25
2022-12-29T00:35:11.863Z,21.02
2022-12-29T00:35:53.117Z,22.92
2022-12-29T00:36:34.307Z,20.88
2022-12-29T00:37:06.702Z,19.73
2022-12-29T00:38:05.045Z,24.58
2022-12-29T00:38:58.581Z,22.73
2022-12-29T00:39:49.739Z,20.90
2022-12-29T00:40:40.153Z,21.35
2022-12-29T00:41:30.523Z,21.80
2022-12-29T00:42:26.298Z,17.35
2022-12-29T00:43:17.389Z,21.58
2022-12-29T00:44:10.924Z,25.25
2022-12-29T00:44:42.784Z,17.98
2022-12-29T00:45:15.076Z,19.12
2022-12-29T00:45:46.982Z,20.27
2022-12-29T00:46:20.115Z,18.05
2022-12-29T00:46:52.399Z,20.62
2022-12-29T00:47:24.564Z,19.20
2022-12-29T00:47:56.431Z,20.70
2022-12-29T00:48:47.447Z,21.05
2022-12-29T00:49:31.536Z,20.23
2022-12-29T00:50:03.541Z,20.52
2022-12-29T00:50:35.385Z,23.55
2022-12-29T00:51:08.093Z,16.50
2022-12-29T00:51:39.959Z,18.80
2022-12-29T00:52:13.331Z,18.98
2022-12-29T00:52:45.525Z,18.17
2022-12-29T00:53:17.397Z,19.17
2022-12-29T00:53:49.848Z,16.92
2022-12-29T00:54:21.855Z,21.40
2022-12-29T00:54:53.717Z,24.15
2022-12-29T00:55:25.518Z,18.12
2022-12-29T00:55:57.419Z,19.12
2022-12-29T00:56:29.358Z,19.58
2022-12-29T00:57:02.524Z,19.92
2022-12-29T00:57:34.559Z,23.52
2022-12-29T00:58:06.535Z,19.98
2022-12-29T00:58:39.237Z,17.17
2022-12-29T00:59:13.906Z,26.10
2022-12-29T00:59:46.311Z,22.27
2022-12-29T01:00:21.215Z,17.67
2022-12-29T01:00:53.164Z,19.15
2022-12-29T01:01:25.135Z,14.80
2022-12-29T01:01:57.775Z,20.08
2022-12-29T01:02:29.863Z,18.95
2022-12-29T01:03:02.047Z,24.12
2022-12-29T01:03:35.569Z,18.70
2022-12-29T01:04:08.517Z,19.27
2022-12-29T01:04:40.720Z,21.95
2022-12-29T01:05:14.229Z,17.60
2022-12-29T01:05:46.169Z,17.17
2022-12-29T01:06:18.158Z,22.45
2022-12-29T01:06:51.064Z,20.98
2022-12-29T01:07:23.135Z,21.58
2022-12-29T01:07:55.073Z,17.55
2022-12-29T01:08:31.079Z,17.75
2022-12-29T01:09:22.494Z,19.05
2022-12-29T01:10:13.407Z,17.12
2022-12-29T01:10:45.270Z,19.87
2022-12-29T01:11:17.519Z,17.05
2022-12-29T01:11:50.259Z,20.90
2022-12-29T01:12:41.576Z,18.92
2022-12-29T01:13:14.223Z,20.92
2022-12-29T01:13:46.216Z,18.73
2022-12-29T01:14:19.778Z,20.88
2022-12-29T01:14:51.695Z,18.98
2022-12-29T01:15:25.451Z,24.40
2022-12-29T01:15:57.751Z,19.87
2022-12-29T01:16:29.986Z,22.05
2022-12-29T01:17:01.947Z,20.25
2022-12-29T01:17:33.886Z,16.85
2022-12-29T01:18:06.481Z,19.75
2022-12-29T01:18:38.345Z,20.85
2022-12-29T01:19:10.510Z,20.37
2022-12-29T01:19:42.388Z,20.05
2022-12-29T01:20:14.632Z,19.20
2022-12-29T01:20:46.933Z,19.60
2022-12-29T01:21:18.827Z,17.40
2022-12-29T01:21:51.312Z,23.85
2022-12-29T01:22:24.387Z,18.42
2022-12-29T01:22:56.282Z,19.23
2022-12-29T01:23:29.055Z,24.65
2022-12-29T01:24:00.943Z,17.52
2022-12-29T01:24:32.834Z,18.98
2022-12-29T01:25:05.916Z,17.70
2022-12-29T01:25:38.971Z,16.37
2022-12-29T01:26:12.594Z,17.37
2022-12-29T01:26:44.671Z,18.83
2022-12-29T01:27:16.591Z,17.98
2022-12-29T01:27:48.450Z,19.05
2022-12-29T01:28:25.757Z,17.35
2022-12-29T01:28:58.059Z,20.15
2022-12-29T01:29:29.908Z,20.77
2022-12-29T01:30:01.764Z,20.98
2022-12-29T01:30:33.888Z,24.85
2022-12-29T01:31:05.918Z,19.80
2022-12-29T01:31:38.502Z,17.58
2022-12-29T01:32:10.412Z,18.92
2022-12-29T01:32:44.068Z,22.08
2022-12-29T01:33:16.132Z,20.55
2022-12-29T01:33:48.022Z,19.42
2022-12-29T01:34:19.928Z,20.30
2022-12-29T01:34:51.795Z,18.70
2022-12-29T01:35:23.665Z,16.40
2022-12-29T01:35:55.546Z,19.55
2022-12-29T01:36:27.464Z,19.15
2022-12-29T01:36:59.652Z,18.85
2022-12-29T01:37:31.690Z,19.00
2022-12-29T01:38:03.677Z,21.23
2022-12-29T01:38:37.184Z,20.75
2022-12-29T01:39:09.029Z,20.60
2022-12-29T01:39:40.875Z,22.13
2022-12-29T01:40:13.169Z,22.45
2022-12-29T01:40:47.307Z,17.30
2022-12-29T01:41:19.604Z,25.67
2022-12-29T01:41:51.553Z,18.50
2022-12-29T01:42:27.166Z,18.00
2022-12-29T01:42:59.031Z,17.00
2022-12-29T01:43:48.661Z,16.87
2022-12-29T01:44:48.316Z,20.73
2022-12-29T01:45:20.231Z,21.35
2022-12-29T01:45:55.082Z,18.60
2022-12-29T01:46:40.325Z,20.70
2022-12-29T01:47:13.308Z,20.33
2022-12-29T01:47:54.627Z,23.42
2022-12-29T01:48:26.865Z,20.90
2022-12-29T01:49:03.649Z,21.02
2022-12-29T01:49:35.911Z,18.58
2022-12-29T01:50:19.613Z,22.00
2022-12-29T01:50:54.312Z,21.50
2022-12-29T01:51:28.438Z,18.10
2022-12-29T01:52:08.916Z,19.85
2022-12-29T01:52:47.239Z,16.55
2022-12-29T01:53:25.444Z,17.17
2022-12-29T01:54:01.241Z,22.85
2022-12-29T01:54:43.099Z,19.90
2022-12-29T01:55:15.769Z,18.83
2022-12-29T01:55:55.145Z,17.92
2022-12-29T01:56:27.825Z,24.08
2022-12-29T01:57:04.331Z,16.37
2022-12-29T01:57:41.141Z,22.05
2022-12-29T01:58:15.910Z,16.45
2022-12-29T01:58:54.741Z,19.80
2022-12-29T01:59:32.112Z,21.37
2022-12-29T02:00:10.526Z,19.52
2022-12-29T02:00:44.885Z,16.60
2022-12-29T02:01:20.784Z,17.37
2022-12-29T02:01:52.829Z,17.58
2022-12-29T02:02:25.811Z,17.67
2022-12-29T02:02:57.844Z,17.12
2022-12-29T02:03:33.071Z,20.52
2022-12-29T02:04:05.467Z,16.90
2022-12-29T02:04:45.331Z,18.30
2022-12-29T02:05:34.915Z,19.67
2022-12-29T02:06:16.993Z,18.05
2022-12-29T02:06:58.219Z,17.87
2022-12-29T02:07:30.163Z,19.10
2022-12-29T02:08:03.032Z,16.52
2022-12-29T02:08:35.001Z,16.02
2022-12-29T02:09:06.872Z,18.45
2022-12-29T02:09:38.780Z,17.33
2022-12-29T02:10:10.802Z,18.95
2022-12-29T02:10:44.042Z,20.70
2022-12-29T02:11:17.531Z,18.05
2022-12-29T02:11:49.717Z,16.70
2022-12-29T02:12:25.066Z,21.15
2022-12-29T02:12:57.415Z,18.58
2022-12-29T02:13:29.891Z,17.10
2022-12-29T02:14:03.774Z,18.20
2022-12-29T02:14:35.923Z,18.12
2022-12-29T02:15:08.606Z,19.70
2022-12-29T02:15:57.500Z,18.25
2022-12-29T02:16:57.169Z,17.65
2022-12-29T02:17:46.393Z,14.20
2022-12-29T02:18:55.075Z,19.73
2022-12-29T02:19:30.574Z,19.30
2022-12-29T02:20:56.027Z,16.08
2022-12-29T02:21:30.821Z,15.40
2022-12-29T02:22:11.883Z,16.02
2022-12-29T02:22:58.968Z,15.52
2022-12-29T02:23:48.782Z,16.65
2022-12-29T02:24:27.049Z,18.90
2022-12-29T02:25:06.334Z,16.50
2022-12-29T02:25:45.052Z,16.12
2022-12-29T02:26:34.863Z,19.70
2022-12-29T02:27:06.688Z,18.10
2022-12-29T02:28:04.055Z,16.30
2022-12-29T02:28:55.347Z,17.35
2022-12-29T02:29:42.310Z,17.65
2022-12-29T02:30:17.747Z,21.83
2022-12-29T02:30:59.058Z,19.77
2022-12-29T02:31:47.656Z,16.10
2022-12-29T02:32:45.825Z,21.85
2022-12-29T02:33:17.628Z,19.50
2022-12-29T02:33:50.867Z,17.42
2022-12-29T02:34:55.316Z,19.90
2022-12-29T02:35:39.298Z,15.05
2022-12-29T02:36:20.504Z,19.27
2022-12-29T02:37:08.505Z,16.58
2022-12-29T02:37:47.911Z,16.10
2022-12-29T02:38:42.536Z,18.50
2022-12-29T02:39:51.302Z,15.68
2022-12-29T02:40:23.123Z,17.87
2022-12-29T02:41:28.108Z,16.83
2022-12-29T02:42:05.172Z,19.02
2022-12-29T02:43:11.946Z,19.15
2022-12-29T02:43:59.517Z,15.98
2022-12-29T02:44:55.041Z,17.33
2022-12-29T02:45:33.004Z,15.05
2022-12-29T02:46:29.046Z,17.73
2022-12-29T02:47:25.138Z,17.48
2022-12-29T02:48:32.439Z,16.40
2022-12-29T02:49:23.709Z,21.58
2022-12-29T02:50:05.209Z,19.12
2022-12-29T02:50:52.364Z,17.55
2022-12-29T02:51:32.704Z,18.05
2022-12-29T02:52:59.267Z,15.63
2022-12-29T02:53:53.597Z,16.30
2022-12-29T02:54:44.276Z,19.77
2022-12-29T02:55:50.076Z,19.40
2022-12-29T02:56:22.713Z,22.70
2022-12-29T02:56:54.830Z,20.75
2022-12-29T02:57:27.498Z,18.87
2022-12-29T02:58:13.705Z,22.25
2022-12-29T02:58:46.183Z,22.65
2022-12-29T02:59:18.374Z,22.27
2022-12-29T02:59:58.417Z,24.33
2022-12-29T03:00:31.110Z,21.65
2022-12-29T03:01:11.852Z,25.50
2022-12-29T03:02:59.245Z,25.05
2022-12-29T03:03:36.973Z,22.50
2022-12-29T03:04:11.492Z,21.92
2022-12-29T03:05:09.625Z,21.67
2022-12-29T03:06:00.277Z,21.98
2022-12-29T03:06:53.218Z,24.77
2022-12-29T03:08:03.172Z,24.98
2022-12-29T03:09:18.306Z,21.73
2022-12-29T03:10:15.279Z,25.60
2022-12-29T03:10:53.505Z,24.87
2022-12-29T03:11:52.199Z,27.27
2022-12-29T03:13:00.296Z,26.65
2022-12-29T03:14:04.102Z,28.77
2022-12-29T03:15:22.162Z,27.20
2022-12-29T03:16:42.759Z,25.30
2022-12-29T03:17:36.629Z,29.33
2022-12-29T03:18:48.517Z,31.58
2022-12-29T03:19:34.416Z,34.40
2022-12-29T03:20:09.865Z,26.27
2022-12-29T03:21:01.599Z,29.75
2022-12-29T03:22:14.284Z,30.85
2022-12-29T03:22:52.172Z,30.05
2022-12-29T03:23:28.084Z,32.20
2022-12-29T03:24:00.114Z,38.15
2022-12-29T03:24:38.130Z,29.08
2022-12-29T03:25:22.050Z,31.45
2022-12-29T03:25:58.285Z,32.53
2022-12-29T03:26:30.985Z,31.48
2022-12-29T03:27:07.529Z,28.55
2022-12-29T03:27:46.742Z,34.33
2022-12-29T03:28:28.041Z,32.35
2022-12-29T03:29:00.057Z,34.35
2022-12-29T03:29:41.143Z,34.45
2022-12-29T03:30:13.962Z,30.85
2022-12-29T03:30:47.446Z,30.35
2022-12-29T03:31:23.659Z,33.42
2022-12-29T03:31:57.537Z,30.27
2022-12-29T03:32:42.970Z,28.58
2022-12-29T03:33:24.115Z,34.25
2022-12-29T03:34:31.781Z,34.25
2022-12-29T03:35:05.579Z,31.02
2022-12-29T03:35:40.208Z,31.10
2022-12-29T03:36:19.529Z,35.65
2022-12-29T03:37:16.050Z,32.60
2022-12-29T03:38:00.055Z,29.02
2022-12-29T03:38:36.843Z,35.40
2022-12-29T03:39:13.311Z,31.08
2022-12-29T03:39:46.008Z,33.22
2022-12-29T03:40:20.294Z,29.63
2022-12-29T03:40:58.803Z,32.28
2022-12-29T03:41:33.959Z,32.10
2022-12-29T03:42:14.817Z,30.52
2022-12-29T03:42:48.837Z,28.73
2022-12-29T03:43:21.132Z,33.70
2022-12-29T03:43:53.375Z,31.80
2022-12-29T03:44:45.852Z,31.80
2022-12-29T03:45:18.474Z,30.25
2022-12-29T03:45:51.882Z,29.67
2022-12-29T03:46:23.811Z,31.77
2022-12-29T03:46:55.889Z,29.85
2022-12-29T03:47:28.013Z,28.50
2022-12-29T03:47:59.989Z,29.92
2022-12-29T03:48:33.887Z,27.62
2022-12-29T03:49:06.651Z,32.67
2022-12-29T03:49:38.795Z,32.10
2022-12-29T03:50:13.087Z,30.25
2022-12-29T03:50:45.293Z,28.12
2022-12-29T03:51:17.260Z,33.08
2022-12-29T03:51:52.022Z,33.42
2022-12-29T03:52:24.654Z,31.15
2022-12-29T03:52:57.252Z,31.62
2022-12-29T03:53:29.132Z,30.48
2022-12-29T03:54:01.465Z,31.27
2022-12-29T03:54:33.970Z,33.03
2022-12-29T03:55:06.895Z,29.40
2022-12-29T03:55:39.882Z,28.77
2022-12-29T03:56:12.982Z,33.22
2022-12-29T03:56:44.927Z,30.37
2022-12-29T03:57:19.329Z,36.65
2022-12-29T03:57:51.835Z,27.55
2022-12-29T03:58:25.533Z,30.52
2022-12-29T03:58:58.909Z,30.48
2022-12-29T03:59:33.236Z,31.58
2022-12-29T04:00:07.590Z,34.63
2022-12-29T04:00:46.907Z,30.12
2022-12-29T04:01:19.256Z,34.67
2022-12-29T04:01:51.471Z,31.65
2022-12-29T04:02:24.957Z,34.80
2022-12-29T04:02:57.892Z,31.65
2022-12-29T04:03:30.030Z,35.25
2022-12-29T04:04:01.914Z,31.95
2022-12-29T04:04:33.976Z,30.33
2022-12-29T04:05:06.631Z,34.45
2022-12-29T04:05:39.021Z,30.98
2022-12-29T04:06:10.877Z,34.40
2022-12-29T04:06:43.689Z,33.78
2022-12-29T04:07:15.549Z,31.98
2022-12-29T04:07:47.756Z,32.80
2022-12-29T04:08:19.986Z,36.55
2022-12-29T04:08:53.654Z,33.13
2022-12-29T04:09:25.825Z,31.12
2022-12-29T04:09:58.161Z,33.20
2022-12-29T04:10:30.266Z,33.22
2022-12-29T04:11:02.999Z,32.95
2022-12-29T04:11:34.903Z,34.45
2022-12-29T04:12:07.419Z,34.45
2022-12-29T04:12:40.042Z,36.85
2022-12-29T04:13:12.448Z,40.40
2022-12-29T04:13:44.483Z,32.33
2022-12-29T04:14:17.199Z,33.75
2022-12-29T04:14:50.439Z,38.60
2022-12-29T04:15:25.294Z,35.05
2022-12-29T04:15:58.575Z,35.83
2022-12-29T04:16:30.859Z,39.88
2022-12-29T04:17:02.839Z,35.05
2022-12-29T04:17:35.469Z,38.25
2022-12-29T04:18:07.664Z,37.03
2022-12-29T04:18:39.865Z,35.75
2022-12-29T04:19:12.122Z,36.42
2022-12-29T04:19:44.057Z,37.08
2022-12-29T04:20:34.694Z,36.15
2022-12-29T04:21:07.727Z,32.55
2022-12-29T04:21:40.033Z,38.92
2022-12-29T04:22:12.702Z,35.45
2022-12-29T04:22:45.475Z,33.13
2022-12-29T04:23:17.420Z,34.80
2022-12-29T04:23:50.759Z,37.28
2022-12-29T04:24:22.782Z,36.72
2022-12-29T04:24:54.933Z,36.97
2022-12-29T04:25:26.855Z,35.25
2022-12-29T04:25:59.588Z,36.70
2022-12-29T04:26:32.553Z,35.63
2022-12-29T04:27:05.841Z,34.63
2022-12-29T04:27:37.946Z,38.10
2022-12-29T04:28:10.175Z,37.28
2022-12-29T04:28:42.914Z,36.25
2022-12-29T04:29:15.240Z,39.70
2022-12-29T04:29:47.534Z,36.47
2022-12-29T04:30:19.785Z,34.75
2022-12-29T04:30:52.691Z,38.78
2022-12-29T04:31:25.052Z,40.38
2022-12-29T04:31:57.031Z,33.20
2022-12-29T04:32:29.208Z,34.63
2022-12-29T04:33:04.016Z,40.33
2022-12-29T04:33:36.196Z,34.25
2022-12-29T04:34:08.437Z,36.35
2022-12-29T04:34:40.551Z,37.00
2022-12-29T04:35:12.374Z,39.70
2022-12-29T04:35:45.212Z,35.28
2022-12-29T04:36:17.232Z,39.17
2022-12-29T04:36:50.986Z,38.30
2022-12-29T04:37:23.965Z,38.38
2022-12-29T04:37:55.825Z,36.10
2022-12-29T04:38:27.980Z,35.47
2022-12-29T04:39:00.390Z,37.58
2022-12-29T04:39:33.957Z,36.70
2022-12-29T04:40:06.715Z,35.55
2022-12-29T04:40:43.866Z,40.20
2022-12-29T04:41:15.876Z,39.65
2022-12-29T04:41:49.431Z,36.42
2022-12-29T04:42:21.748Z,38.03
2022-12-29T04:42:55.859Z,39.72
2022-12-29T04:43:29.210Z,37.35
2022-12-29T04:44:01.925Z,39.90
2022-12-29T04:44:37.632Z,37.85
2022-12-29T04:45:14.373Z,35.13
2022-12-29T04:45:49.011Z,41.17
2022-12-29T04:46:21.276Z,38.58
2022-12-29T04:46:54.005Z,35.58
2022-12-29T04:47:27.409Z,38.70
2022-12-29T04:47:59.937Z,37.08
2022-12-29T04:48:32.528Z,38.97
2022-12-29T04:49:09.493Z,40.80
2022-12-29T04:49:42.882Z,36.63
2022-12-29T04:50:15.376Z,33.85
2022-12-29T04:50:49.725Z,33.92
2022-12-29T04:51:21.962Z,35.38
2022-12-29T04:51:55.341Z,39.78
2022-12-29T04:52:28.683Z,36.53
2022-12-29T04:53:01.025Z,38.58
2022-12-29T04:53:32.945Z,39.92
2022-12-29T04:54:05.433Z,41.40
2022-12-29T04:54:37.813Z,33.45
2022-12-29T04:55:10.479Z,37.92
2022-12-29T04:55:43.540Z,35.47
2022-12-29T04:56:15.479Z,36.45
2022-12-29T04:56:47.884Z,32.58
2022-12-29T04:57:20.732Z,36.92
2022-12-29T04:57:54.473Z,34.65
2022-12-29T04:58:26.736Z,38.45
2022-12-29T04:58:58.704Z,34.70
2022-12-29T04:59:32.211Z,35.17
2022-12-29T05:00:05.322Z,34.97
2022-12-29T05:00:37.749Z,34.10
2022-12-29T05:01:10.035Z,36.80
2022-12-29T05:01:43.616Z,38.35
2022-12-29T05:02:17.244Z,37.42
2022-12-29T05:02:51.238Z,39.45
2022-12-29T05:03:23.545Z,37.80
2022-12-29T05:03:55.483Z,36.10
2022-12-29T05:04:28.370Z,35.05
2022-12-29T05:05:00.724Z,36.47
2022-12-29T05:05:32.963Z,41.95
2022-12-29T05:06:05.867Z,40.35
2022-12-29T05:06:37.878Z,38.22
2022-12-29T05:07:10.663Z,35.55
2022-12-29T05:07:43.232Z,36.85
2022-12-29T05:08:15.430Z,35.95
2022-12-29T05:08:47.690Z,40.35
2022-12-29T05:09:20.177Z,40.15
2022-12-29T05:09:52.534Z,37.88
2022-12-29T05:10:24.717Z,33.65
2022-12-29T05:10:56.928Z,38.22
2022-12-29T05:11:28.850Z,39.92
2022-12-29T05:12:01.999Z,35.25
2022-12-29T05:12:36.811Z,42.47
2022-12-29T05:13:08.721Z,37.97
2022-12-29T05:13:40.940Z,34.13
2022-12-29T05:14:13.727Z,38.45
2022-12-29T05:14:46.613Z,37.70
2022-12-29T05:15:18.753Z,37.10
2022-12-29T05:15:52.810Z,39.20
2022-12-29T05:16:25.392Z,39.25
2022-12-29T05:16:57.856Z,39.40
2022-12-29T05:17:30.954Z,36.20
2022-12-29T05:18:02.827Z,38.33
2022-12-29T05:18:34.789Z,39.85
2022-12-29T05:19:06.791Z,41.22
2022-12-29T05:19:39.809Z,37.08
2022-12-29T05:20:12.381Z,39.40
2022-12-29T05:20:44.312Z,39.83
2022-12-29T05:21:16.487Z,37.78
2022-12-29T05:21:49.837Z,35.70
2022-12-29T05:22:21.923Z,36.15
2022-12-29T05:22:55.732Z,40.22
2022-12-29T05:23:27.666Z,44.65
2022-12-29T05:23:59.941Z,45.20
2022-12-29T05:24:32.051Z,39.65
2022-12-29T05:25:04.090Z,41.13
2022-12-29T05:25:38.375Z,44.45
2022-12-29T05:26:12.711Z,36.80
2022-12-29T05:26:44.923Z,42.55
2022-12-29T05:27:16.905Z,42.45
2022-12-29T05:27:49.513Z,38.05
2022-12-29T05:28:21.864Z,38.10
2022-12-29T05:28:53.796Z,37.95
2022-12-29T05:29:25.727Z,36.10
2022-12-29T05:29:58.421Z,40.58
2022-12-29T05:30:30.545Z,39.92
2022-12-29T05:31:03.076Z,36.17
2022-12-29T05:31:36.697Z,37.50
2022-12-29T05:32:09.670Z,35.28
2022-12-29T05:32:41.654Z,41.97
2022-12-29T05:33:13.622Z,38.53
2022-12-29T05:33:45.681Z,39.38
2022-12-29T05:34:17.892Z,39.97
2022-12-29T05:34:50.733Z,41.45
2022-12-29T05:35:23.218Z,40.08
2022-12-29T05:35:55.144Z,41.22
2022-12-29T05:36:34.421Z,40.88
2022-12-29T05:37:09.776Z,41.15
2022-12-29T05:37:43.173Z,41.00
2022-12-29T05:38:15.208Z,41.75
2022-12-29T05:38:47.600Z,39.17
2022-12-29T05:39:19.926Z,43.13
2022-12-29T05:39:53.810Z,42.08
2022-12-29T05:40:25.880Z,41.70
2022-12-29T05:40:59.697Z,42.28
2022-12-29T05:41:33.235Z,41.47
2022-12-29T05:42:06.486Z,40.97
2022-12-29T05:42:40.009Z,46.13
2022-12-29T05:43:12.626Z,43.50
2022-12-29T05:43:44.826Z,42.17
2022-12-29T05:44:17.033Z,37.80
2022-12-29T05:44:53.079Z,38.50
2022-12-29T05:45:25.575Z,41.67
2022-12-29T05:45:58.597Z,42.58
2022-12-29T05:46:30.729Z,42.03
2022-12-29T05:47:03.013Z,40.05
2022-12-29T05:47:36.013Z,37.03
2022-12-29T05:48:08.503Z,36.13
2022-12-29T05:48:40.450Z,41.83
2022-12-29T05:49:13.016Z,39.65
2022-12-29T05:49:47.758Z,38.00
2022-12-29T05:50:20.327Z,41.53
2022-12-29T05:51:01.284Z,35.90
2022-12-29T05:51:34.096Z,35.33
2022-12-29T05:52:06.154Z,28.65
2022-12-29T05:52:38.318Z,41.05
2022-12-29T05:53:10.573Z,59.42
2022-12-29T05:53:42.692Z,66.20
2022-12-29T05:54:14.903Z,51.58
2022-12-29T05:54:46.983Z,41.40
2022-12-29T05:55:19.492Z,70.30
2022-12-29T05:55:52.613Z,38.78
2022-12-29T05:56:25.622Z,37.20
2022-12-29T05:56:57.739Z,36.47
2022-12-29T05:57:29.665Z,37.10
2022-12-29T05:58:02.607Z,39.70
2022-12-29T05:58:34.811Z,36.28
2022-12-29T05:59:06.856Z,37.50
2022-12-29T05:59:39.268Z,36.65
2022-12-29T06:00:13.762Z,34.38
2022-12-29T06:00:46.741Z,35.17
2022-12-29T06:01:19.675Z,33.63
2022-12-29T06:01:52.012Z,34.65
2022-12-29T06:02:24.164Z,35.05
2022-12-29T06:02:56.290Z,34.20
2022-12-29T06:03:28.567Z,36.83
2022-12-29T06:04:01.019Z,39.63
2022-12-29T06:04:33.026Z,36.33
2022-12-29T06:05:06.220Z,33.85
2022-12-29T06:05:38.908Z,37.20
2022-12-29T06:06:10.888Z,34.95
2022-12-29T06:06:43.714Z,35.03
2022-12-29T06:07:16.786Z,38.83
2022-12-29T06:07:50.000Z,34.65
2022-12-29T06:08:22.071Z,38.53
2022-12-29T06:08:54.259Z,32.30
2022-12-29T06:09:26.873Z,30.88
2022-12-29T06:09:59.434Z,33.47
2022-12-29T06:10:31.754Z,33.40
2022-12-29T06:11:04.478Z,31.50
2022-12-29T06:11:36.415Z,36.15
2022-12-29T06:12:09.171Z,34.13
2022-12-29T06:12:42.990Z,39.67
2022-12-29T06:13:14.935Z,36.50
2022-12-29T06:13:48.085Z,40.17
2022-12-29T06:14:20.043Z,42.85
2022-12-29T06:14:52.952Z,44.20
2022-12-29T06:15:24.892Z,44.78
2022-12-29T06:15:57.044Z,44.95
2022-12-29T06:16:31.183Z,41.90
2022-12-29T06:17:04.464Z,40.28
2022-12-29T06:17:37.523Z,38.60
2022-12-29T06:18:13.734Z,40.60
2022-12-29T06:18:51.440Z,38.55
2022-12-29T06:19:23.363Z,40.67
2022-12-29T06:19:55.764Z,35.45
2022-12-29T06:20:27.757Z,39.88
2022-12-29T06:21:04.943Z,32.63
2022-12-29T06:21:38.216Z,40.35
2022-12-29T06:22:13.091Z,39.67
2022-12-29T06:22:46.431Z,36.10
2022-12-29T06:23:19.657Z,39.30
2022-12-29T06:23:51.678Z,39.20
2022-12-29T06:24:23.577Z,40.50
2022-12-29T06:25:00.048Z,40.92
2022-12-29T06:25:36.867Z,42.45
2022-12-29T06:26:09.395Z,46.35
2022-12-29T06:26:41.362Z,44.85
2022-12-29T06:27:14.842Z,53.15
2022-12-29T06:27:47.165Z,50.67
2022-12-29T06:28:19.080Z,41.25
2022-12-29T06:28:50.964Z,47.22
2022-12-29T06:29:22.859Z,42.35
2022-12-29T06:29:54.954Z,44.03
2022-12-29T06:30:27.512Z,40.60
2022-12-29T06:30:59.715Z,39.92
2022-12-29T06:31:32.914Z,36.53
2022-12-29T06:32:05.692Z,38.30
2022-12-29T06:32:38.178Z,40.05
2022-12-29T06:33:10.699Z,37.15
2022-12-29T06:33:42.630Z,39.17
2022-12-29T06:34:15.895Z,37.53
2022-12-29T06:34:47.773Z,40.58
2022-12-29T06:35:20.000Z,36.22
2022-12-29T06:35:52.129Z,40.38
2022-12-29T06:36:24.088Z,40.53
2022-12-29T06:36:56.021Z,39.22
2022-12-29T06:37:28.142Z,39.25
2022-12-29T06:38:00.135Z,41.70
2022-12-29T06:38:32.433Z,38.80
2022-12-29T06:39:04.689Z,40.75
2022-12-29T06:39:36.682Z,39.92
2022-12-29T06:40:09.478Z,42.00
2022-12-29T06:40:44.069Z,43.50
2022-12-29T06:41:16.540Z,45.12
2022-12-29T06:41:54.514Z,44.13
2022-12-29T06:42:29.561Z,47.62
2022-12-29T06:43:01.645Z,44.35
2022-12-29T06:43:34.838Z,50.00
2022-12-29T06:44:06.896Z,51.15
2022-12-29T06:44:41.441Z,49.58
2022-12-29T06:45:13.509Z,50.20
2022-12-29T06:45:45.488Z,54.90
2022-12-29T06:46:17.385Z,49.58
2022-12-29T06:46:49.495Z,55.75
2022-12-29T06:47:21.312Z,51.17
2022-12-29T06:47:53.247Z,47.42
2022-12-29T06:48:25.111Z,46.25
2022-12-29T06:48:57.291Z,49.95
2022-12-29T06:49:29.131Z,49.72
2022-12-29T06:50:01.082Z,51.55
2022-12-29T06:50:32.932Z,51.25
2022-12-29T06:51:05.004Z,44.63
2022-12-29T06:51:36.919Z,48.70
2022-12-29T06:52:12.680Z,44.50
2022-12-29T06:52:44.917Z,42.35
2022-12-29T06:53:16.770Z,39.60
2022-12-29T06:53:51.649Z,39.08
2022-12-29T06:54:23.783Z,38.80
2022-12-29T06:54:56.113Z,44.22
2022-12-29T06:55:29.216Z,41.13
2022-12-29T06:56:01.113Z,43.63
2022-12-29T06:56:33.283Z,39.22
2022-12-29T06:57:05.148Z,40.25
2022-12-29T06:57:37.036Z,36.85
2022-12-29T06:58:09.139Z,40.75
2022-12-29T06:58:41.054Z,37.28
2022-12-29T06:59:13.002Z,33.92
2022-12-29T06:59:45.260Z,36.00
2022-12-29T07:00:22.473Z,36.00
2022-12-29T07:00:54.984Z,33.92
2022-12-29T07:01:27.132Z,35.53
2022-12-29T07:01:59.137Z,37.47
2022-12-29T07:02:31.254Z,36.78
2022-12-29T07:03:03.419Z,33.47
2022-12-29T07:03:36.601Z,32.42
2022-12-29T07:04:08.871Z,34.28
2022-12-29T07:04:40.737Z,36.42
2022-12-29T07:05:14.717Z,35.78
2022-12-29T07:05:46.612Z,37.17
2022-12-29T07:06:18.506Z,34.80
2022-12-29T07:06:50.420Z,33.47
2022-12-29T07:07:22.300Z,34.33
2022-12-29T07:07:55.224Z,33.15
2022-12-29T07:08:27.073Z,31.98
2022-12-29T07:08:59.130Z,33.58
2022-12-29T07:09:31.123Z,36.45
2022-12-29T07:10:03.330Z,34.70
2022-12-29T07:10:35.580Z,31.95
2022-12-29T07:11:07.572Z,34.33
2022-12-29T07:11:39.567Z,34.97
2022-12-29T07:12:11.419Z,32.38
2022-12-29T07:12:43.275Z,35.47
2022-12-29T07:13:15.241Z,31.08
2022-12-29T07:13:47.083Z,35.38
2022-12-29T07:14:18.928Z,37.33
2022-12-29T07:14:50.888Z,36.45
2022-12-29T07:15:22.764Z,33.85
2022-12-29T07:15:54.866Z,33.50
2022-12-29T07:16:26.995Z,35.10
2022-12-29T07:16:58.928Z,33.47
2022-12-29T07:17:30.777Z,35.67
2022-12-29T07:18:02.734Z,36.72
2022-12-29T07:18:34.669Z,29.67
2022-12-29T07:19:06.829Z,33.85
2022-12-29T07:19:39.063Z,34.08
2022-12-29T07:20:11.480Z,34.55
2022-12-29T07:20:43.370Z,33.53
2022-12-29T07:21:15.548Z,37.00
2022-12-29T07:21:48.096Z,32.92
2022-12-29T07:22:19.935Z,31.87
2022-12-29T07:22:51.832Z,32.42
2022-12-29T07:23:24.249Z,33.75
2022-12-29T07:23:56.396Z,32.25
2022-12-29T07:24:28.281Z,35.55
2022-12-29T07:25:00.177Z,29.52
2022-12-29T07:25:32.168Z,33.47
2022-12-29T07:26:09.840Z,34.38
2022-12-29T07:26:42.814Z,33.63
2022-12-29T07:27:15.027Z,36.58
2022-12-29T07:27:46.869Z,27.77
2022-12-29T07:28:18.723Z,31.77
2022-12-29T07:28:50.849Z,32.60
2022-12-29T07:29:22.876Z,31.62
2022-12-29T07:29:54.714Z,31.52
2022-12-29T07:30:26.585Z,32.85
2022-12-29T07:30:58.791Z,31.40
2022-12-29T07:31:31.028Z,37.22
2022-12-29T07:32:03.300Z,34.05
2022-12-29T07:32:35.993Z,32.63
2022-12-29T07:33:07.868Z,30.88
2022-12-29T07:33:39.786Z,36.15
2022-12-29T07:34:11.671Z,33.85
2022-12-29T07:34:46.160Z,36.38
2022-12-29T07:35:18.098Z,33.10
2022-12-29T07:35:50.038Z,31.58
2022-12-29T07:36:22.220Z,33.55
2022-12-29T07:36:54.315Z,30.00
2022-12-29T07:37:26.521Z,34.15
2022-12-29T07:37:58.380Z,35.33
2022-12-29T07:38:30.219Z,32.70
2022-12-29T07:39:02.951Z,33.45
2022-12-29T07:39:34.802Z,29.90
2022-12-29T07:40:07.514Z,34.85
2022-12-29T07:40:39.400Z,29.95
2022-12-29T07:41:11.343Z,29.23
2022-12-29T07:41:43.860Z,34.70
2022-12-29T07:42:16.534Z,36.40
2022-12-29T07:42:49.910Z,33.08
2022-12-29T07:43:22.119Z,28.65